Terminal Aerodrome Forecast
Issued by NWS

Home | Current Version | Previous Version | Text Only | Print | Product List | Glossary On
Versions: 1 2 3 4 5 6 7 8 9 10 11 12 13 14 15 16 17
000
FTUS45 KBOI 240059 AAA
TAFMYL
TAF AMD
KMYL 240059Z 2401/2424 18005KT 3SM -RA BR OVC030
     FM240500 24006KT 3SM -RA BR OVC020
     FM241000 VRB03KT 1SM BR OVC002
     FM241700 VRB05KT 5SM BR OVC015
     FM242000 VRB04KT P6SM SCT020 SCT070=

USA.gov is the U.S. government's official web portal to all federal, state and local government web resources and services.